
Distance (Route):
Temperature : -22.7°C
Humidity : 54.6%
Pressure : 0hPa| Receiver | Frames | First received | Last received |
|---|---|---|---|
| LZ4TU-5 | 150 | 2026-08-30 17:25:13 | 2026-08-30 19:03:06 |
| Receiver | Date | Latitude | Longitude | Direction | Speed | Altitude | Climb | Temperature | Humidity | Pressure | Voltage | Killtimer | Uptime | BKT | XDATA |
|---|---|---|---|---|---|---|---|---|---|---|---|---|---|---|---|
| LZ4TU-5 | 2026-08-30 19:03:06 | 43.16447 | 22.35764 | 116° | 37km/h | 7881m | -18.1m/s | -22.7°C | 54.6% | 0hPa | 0V | 00:00:00 | 00:00:00 | 00:00:00 | |
| LZ4TU-5 | 2026-08-30 19:03:01 | 43.16467 | 22.35708 | 117° | 37km/h | 7970m | -16.1m/s | -23.5°C | 54.9% | 0hPa | 0V | 00:00:00 | 00:00:00 | 00:00:00 | |
| LZ4TU-5 | 2026-08-30 19:01:59 | 43.16698 | 22.34909 | 108° | 42km/h | 9042m | -18.1m/s | -31.2°C | 32.9% | 0hPa | 0V | 00:00:00 | 00:00:00 | 00:00:00 | |
| LZ4TU-5 | 2026-08-30 19:01:54 | 43.16714 | 22.34840 | 110° | 42km/h | 9129m | -14.9m/s | -32.1°C | 33.3% | 0hPa | 0V | 00:00:00 | 00:00:00 | 00:00:00 | |
| LZ4TU-5 | 2026-08-30 19:00:52 | 43.16979 | 22.33894 | 118° | 51km/h | 10133m | -17.1m/s | -40.2°C | 33.9% | 0hPa | 0V | 00:00:00 | 00:00:00 | 00:00:00 | |
| LZ4TU-5 | 2026-08-30 19:00:47 | 43.17006 | 22.33813 | 114° | 55km/h | 10201m | -17.0m/s | -40.8°C | 35.8% | 0hPa | 0V | 00:00:00 | 00:00:00 | 00:00:00 | |
| LZ4TU-5 | 2026-08-30 18:59:43 | 43.17383 | 22.32798 | 125° | 57km/h | 11341m | -20.9m/s | -50.1°C | 50.5% | 0hPa | 0V | 00:00:00 | 00:00:00 | 00:00:00 | |
| LZ4TU-5 | 2026-08-30 18:59:38 | 43.17421 | 22.32716 | 126° | 57km/h | 11433m | -21.0m/s | -50.8°C | 50.3% | 0hPa | 0V | 00:00:00 | 00:00:00 | 00:00:00 | |
| LZ4TU-5 | 2026-08-30 18:58:37 | 43.17835 | 22.31705 | 118° | 55km/h | 12516m | -16.2m/s | -57.9°C | 21.6% | 0hPa | 0V | 00:00:00 | 00:00:00 | 00:00:00 | |
| LZ4TU-5 | 2026-08-30 18:58:33 | 43.17861 | 22.31638 | 119° | 55km/h | 12582m | -16.3m/s | -58.4°C | 19.9% | 0hPa | 0V | 00:00:00 | 00:00:00 | 00:00:00 | |
| LZ4TU-5 | 2026-08-30 18:57:31 | 43.18299 | 22.30480 | 112° | 55km/h | 13629m | -17.5m/s | -57.5°C | 6.4% | 0hPa | 0V | 00:00:00 | 00:00:00 | 00:00:00 | |
| LZ4TU-5 | 2026-08-30 18:57:26 | 43.18321 | 22.30387 | 106° | 58km/h | 13718m | -17.4m/s | -57.2°C | 5.9% | 0hPa | 0V | 00:00:00 | 00:00:00 | 00:00:00 | |
| LZ4TU-5 | 2026-08-30 18:56:25 | 43.18648 | 22.29635 | 100° | 24km/h | 14818m | -18.6m/s | -59.9°C | 0.7% | 0hPa | 0V | 00:00:00 | 00:00:00 | 00:00:00 | |
| LZ4TU-5 | 2026-08-30 18:56:20 | 43.18652 | 22.29583 | 97° | 37km/h | 14913m | -18.5m/s | -60.0°C | 0.5% | 0hPa | 0V | 00:00:00 | 00:00:00 | 00:00:00 | |
| LZ4TU-5 | 2026-08-30 18:54:55 | 43.18875 | 22.28614 | 99° | 35km/h | 16595m | -20.9m/s | -59.9°C | 0.0% | 0hPa | 0V | 00:00:00 | 00:00:00 | 00:00:00 | |
| LZ4TU-5 | 2026-08-30 18:54:51 | 43.18875 | 22.28566 | 84° | 37km/h | 16681m | -21.3m/s | -59.6°C | 0.0% | 0hPa | 0V | 00:00:00 | 00:00:00 | 00:00:00 | |
| LZ4TU-5 | 2026-08-30 18:53:43 | 43.18912 | 22.28090 | 100° | 13km/h | 18231m | -24.0m/s | -58.7°C | 0.0% | 0hPa | 0V | 00:00:00 | 00:00:00 | 00:00:00 | |
| LZ4TU-5 | 2026-08-30 18:53:38 | 43.18906 | 22.28067 | 52° | 16km/h | 18351m | -24.1m/s | -59.3°C | 0.0% | 0hPa | 0V | 00:00:00 | 00:00:00 | 00:00:00 | |
| LZ4TU-5 | 2026-08-30 18:52:28 | 43.18832 | 22.27881 | 57° | 11km/h | 20156m | -27.8m/s | -56.4°C | 0.0% | 0hPa | 0V | 00:00:00 | 00:00:00 | 00:00:00 | |
| LZ4TU-5 | 2026-08-30 18:52:23 | 43.18828 | 22.27870 | 110° | 7km/h | 20298m | -27.8m/s | -56.6°C | 0.0% | 0hPa | 0V | 00:00:00 | 00:00:00 | 00:00:00 | |
| LZ4TU-5 | 2026-08-30 18:51:14 | 43.18812 | 22.27950 | 42° | 7km/h | 22472m | -35.2m/s | -53.8°C | 0.0% | 0hPa | 0V | 00:00:00 | 00:00:00 | 00:00:00 | |
| LZ4TU-5 | 2026-08-30 18:51:10 | 43.18805 | 22.27947 | 352° | 7km/h | 22618m | -36.7m/s | -53.6°C | 0.0% | 0hPa | 0V | 00:00:00 | 00:00:00 | 00:00:00 | |
| LZ4TU-5 | 2026-08-30 18:50:03 | 43.18801 | 22.28143 | 250° | 13km/h | 25490m | -46.1m/s | -51.1°C | 0.0% | 0hPa | 0V | 00:00:00 | 00:00:00 | 00:00:00 | |
| LZ4TU-5 | 2026-08-30 18:49:59 | 43.18802 | 22.28160 | 274° | 15km/h | 25685m | -52.0m/s | -49.5°C | 0.0% | 0hPa | 0V | 00:00:00 | 00:00:00 | 00:00:00 | |
| LZ4TU-5 | 2026-08-30 18:49:53 | 43.18801 | 22.28183 | 288° | 15km/h | 25987m | -50.8m/s | -49.6°C | 0.0% | 0hPa | 0V | 00:00:00 | 00:00:00 | 00:00:00 | |
| LZ4TU-5 | 2026-08-30 18:49:46 | 43.18786 | 22.28209 | 318° | 16km/h | 26334m | -56.4m/s | -48.7°C | 0.0% | 0hPa | 0V | 00:00:00 | 00:00:00 | 00:00:00 | |
| LZ4TU-5 | 2026-08-30 18:49:40 | 43.18770 | 22.28223 | 344° | 13km/h | 26683m | -58.7m/s | -48.6°C | 0.0% | 0hPa | 0V | 00:00:00 | 00:00:00 | 00:00:00 | |
| LZ4TU-5 | 2026-08-30 18:49:31 | 43.18752 | 22.28204 | 97° | 9km/h | 27202m | -56.1m/s | -46.1°C | 0.0% | 0hPa | 0V | 00:00:00 | 00:00:00 | 00:00:00 | |
| LZ4TU-5 | 2026-08-30 18:48:16 | 43.18871 | 22.28263 | 251° | 16km/h | 30219m | 7.8m/s | -43.5°C | 0.0% | 0hPa | 0V | 00:00:00 | 00:00:00 | 00:00:00 | |
| LZ4TU-5 | 2026-08-30 18:48:11 | 43.18867 | 22.28295 | 0° | 0km/h | 30186m | 7.7m/s | -43.4°C | 0.0% | 0hPa | 0V | 00:00:00 | 00:00:00 | 00:00:00 | |
| LZ4TU-5 | 2026-08-30 18:45:38 | 43.18666 | 22.28608 | 60° | 13km/h | 29149m | 7.3m/s | -43.8°C | 0.0% | 0hPa | 0V | 00:00:00 | 00:00:00 | 00:00:00 | |
| LZ4TU-5 | 2026-08-30 18:45:33 | 43.18669 | 22.28601 | 276° | 18km/h | 29119m | 6.9m/s | -44.0°C | 0% | 0hPa | 0V | 00:00:00 | 00:00:00 | 00:00:00 | |
| LZ4TU-5 | 2026-08-30 18:44:04 | 43.18943 | 22.28751 | 211° | 5km/h | 28569m | 7.0m/s | -45.2°C | 0.0% | 0hPa | 0V | 00:00:00 | 00:00:00 | 00:00:00 | |
| LZ4TU-5 | 2026-08-30 18:44:00 | 43.18945 | 22.28736 | 142° | 20km/h | 28543m | 7.3m/s | -45.4°C | 0.0% | 0hPa | 0V | 00:00:00 | 00:00:00 | 00:00:00 | |
| LZ4TU-5 | 2026-08-30 18:42:47 | 43.19318 | 22.28798 | 281° | 16km/h | 28042m | 6.5m/s | -46.4°C | 0.0% | 0hPa | 0V | 00:00:00 | 00:00:00 | 00:00:00 | |
| LZ4TU-5 | 2026-08-30 18:42:43 | 43.19318 | 22.28790 | 113° | 35km/h | 28014m | 8.1m/s | -46.6°C | 0.0% | 0hPa | 0V | 00:00:00 | 00:00:00 | 00:00:00 | |
| LZ4TU-5 | 2026-08-30 18:41:21 | 43.19343 | 22.28629 | 5° | 15km/h | 27483m | 8.7m/s | -47.6°C | 0.0% | 0hPa | 0V | 00:00:00 | 00:00:00 | 00:00:00 | |
| LZ4TU-5 | 2026-08-30 18:41:16 | 43.19334 | 22.28622 | 184° | 16km/h | 27455m | 6.8m/s | -47.7°C | 0% | 0hPa | 0V | 00:00:00 | 00:00:00 | 00:00:00 | |
| LZ4TU-5 | 2026-08-30 18:40:00 | 43.19097 | 22.28619 | 301° | 7km/h | 26985m | 4.2m/s | -50.2°C | 0.0% | 0hPa | 0V | 00:00:00 | 00:00:00 | 00:00:00 | |
| LZ4TU-5 | 2026-08-30 18:39:56 | 43.19089 | 22.28607 | 9° | 16km/h | 26962m | 3.5m/s | -50.4°C | 0.0% | 0hPa | 0V | 00:00:00 | 00:00:00 | 00:00:00 | |
| LZ4TU-5 | 2026-08-30 18:38:42 | 43.18878 | 22.28985 | 8° | 18km/h | 26497m | 5.8m/s | -50.3°C | 0.0% | 0hPa | 0V | 00:00:00 | 00:00:00 | 00:00:00 | |
| LZ4TU-5 | 2026-08-30 18:38:37 | 43.18868 | 22.29009 | 282° | 22km/h | 26462m | 6.9m/s | -50.2°C | 0.0% | 0hPa | 0V | 00:00:00 | 00:00:00 | 00:00:00 | |
| LZ4TU-5 | 2026-08-30 18:37:09 | 43.18748 | 22.29260 | 70° | 11km/h | 25891m | 7.0m/s | -49.5°C | 0.0% | 0hPa | 0V | 00:00:00 | 00:00:00 | 00:00:00 | |
| LZ4TU-5 | 2026-08-30 18:35:54 | 43.18829 | 22.29308 | 141° | 13km/h | 25430m | 6.8m/s | -51.9°C | 0.0% | 0hPa | 0V | 00:00:00 | 00:00:00 | 00:00:00 | |
| LZ4TU-5 | 2026-08-30 18:35:49 | 43.18827 | 22.29310 | 254° | 15km/h | 25399m | 5.8m/s | -51.9°C | 0.0% | 0hPa | 0V | 00:00:00 | 00:00:00 | 00:00:00 | |
| LZ4TU-5 | 2026-08-30 18:34:33 | 43.19007 | 22.29386 | 133° | 16km/h | 24943m | 5.2m/s | -52.3°C | 0.0% | 0hPa | 0V | 00:00:00 | 00:00:00 | 00:00:00 | |
| LZ4TU-5 | 2026-08-30 18:34:29 | 43.19015 | 22.29397 | 271° | 26km/h | 24918m | 5.8m/s | -52.4°C | 0.0% | 0hPa | 0V | 00:00:00 | 00:00:00 | 00:00:00 | |
| LZ4TU-5 | 2026-08-30 18:33:15 | 43.19064 | 22.29363 | 313° | 13km/h | 24468m | 5.1m/s | -53.1°C | 0.0% | 0hPa | 0V | 00:00:00 | 00:00:00 | 00:00:00 | |
| LZ4TU-5 | 2026-08-30 18:33:11 | 43.19056 | 22.29364 | 26° | 7km/h | 24442m | 6.1m/s | -53.1°C | 0.0% | 0hPa | 0V | 00:00:00 | 00:00:00 | 00:00:00 | |
| LZ4TU-5 | 2026-08-30 18:31:55 | 43.18897 | 22.29700 | 299° | 18km/h | 23976m | 6.4m/s | -52.4°C | 0.0% | 0hPa | 0V | 00:00:00 | 00:00:00 | 00:00:00 | |
| LZ4TU-5 | 2026-08-30 18:31:51 | 43.18896 | 22.29708 | 358° | 9km/h | 23952m | 7.0m/s | -52.4°C | 0.0% | 0hPa | 0V | 00:00:00 | 00:00:00 | 00:00:00 | |
| LZ4TU-5 | 2026-08-30 18:30:33 | 43.18960 | 22.30039 | 338° | 9km/h | 23484m | 7.0m/s | -53.4°C | 0% | 0hPa | 0V | 00:00:00 | 00:00:00 | 00:00:00 | |
| LZ4TU-5 | 2026-08-30 18:29:18 | 43.18916 | 22.30365 | 241° | 7km/h | 23037m | 4.7m/s | -54.0°C | 0.2% | 0hPa | 0V | 00:00:00 | 00:00:00 | 00:00:00 | |
| LZ4TU-5 | 2026-08-30 18:29:14 | 43.18925 | 22.30369 | 206° | 16km/h | 23011m | 7.0m/s | -54.2°C | 0.2% | 0hPa | 0V | 00:00:00 | 00:00:00 | 00:00:00 | |
| LZ4TU-5 | 2026-08-30 18:29:10 | 43.18932 | 22.30395 | 291° | 20km/h | 22990m | 5.7m/s | -54.2°C | 0.2% | 0hPa | 0V | 00:00:00 | 00:00:00 | 00:00:00 | |
| LZ4TU-5 | 2026-08-30 18:29:05 | 43.18933 | 22.30416 | 199° | 16km/h | 22962m | 5.1m/s | -54.3°C | 0.2% | 0hPa | 0V | 00:00:00 | 00:00:00 | 00:00:00 | |
| LZ4TU-5 | 2026-08-30 18:27:43 | 43.18813 | 22.30552 | 263° | 13km/h | 22491m | 5.1m/s | -54.7°C | 0.0% | 0hPa | 0V | 00:00:00 | 00:00:00 | 00:00:00 | |
| LZ4TU-5 | 2026-08-30 18:27:39 | 43.18805 | 22.30559 | 31° | 16km/h | 22468m | 5.4m/s | -54.9°C | 0.0% | 0hPa | 0V | 00:00:00 | 00:00:00 | 00:00:00 | |
| LZ4TU-5 | 2026-08-30 18:27:35 | 43.18801 | 22.30549 | 0° | 0km/h | 22445m | 5.9m/s | -55.1°C | 0.0% | 0hPa | 0V | 00:00:00 | 00:00:00 | 00:00:00 | |
| LZ4TU-5 | 2026-08-30 18:27:30 | 43.18797 | 22.30563 | 278° | 16km/h | 22417m | 5.4m/s | -55.3°C | 0.0% | 0hPa | 0V | 00:00:00 | 00:00:00 | 00:00:00 | |
| LZ4TU-5 | 2026-08-30 18:26:15 | 43.18858 | 22.30604 | 301° | 9km/h | 21976m | 5.5m/s | -56.5°C | 0.1% | 0hPa | 0V | 00:00:00 | 00:00:00 | 00:00:00 | |
| LZ4TU-5 | 2026-08-30 18:26:10 | 43.18849 | 22.30608 | 80° | 9km/h | 21946m | 7.3m/s | -56.6°C | 0% | 0hPa | 0V | 00:00:00 | 00:00:00 | 00:00:00 | |
| LZ4TU-5 | 2026-08-30 18:24:55 | 43.18737 | 22.30774 | 95° | 9km/h | 21518m | 5.4m/s | -56.7°C | 0.4% | 0hPa | 0V | 00:00:00 | 00:00:00 | 00:00:00 | |
| LZ4TU-5 | 2026-08-30 18:24:51 | 43.18740 | 22.30777 | 287° | 16km/h | 21498m | 4.9m/s | -56.6°C | 0.4% | 0hPa | 0V | 00:00:00 | 00:00:00 | 00:00:00 | |
| LZ4TU-5 | 2026-08-30 18:23:36 | 43.18588 | 22.30929 | 4° | 16km/h | 21080m | 5.9m/s | -56.1°C | 0.4% | 0hPa | 0V | 00:00:00 | 00:00:00 | 00:00:00 | |
| LZ4TU-5 | 2026-08-30 18:22:15 | 43.18460 | 22.31173 | 320° | 13km/h | 20636m | 6.0m/s | -56.4°C | 0.4% | 0hPa | 0V | 00:00:00 | 00:00:00 | 00:00:00 | |
| LZ4TU-5 | 2026-08-30 18:22:10 | 43.18453 | 22.31173 | 195° | 9km/h | 20611m | 4.8m/s | -56.4°C | 0% | 0hPa | 0V | 00:00:00 | 00:00:00 | 00:00:00 | |
| LZ4TU-5 | 2026-08-30 18:20:42 | 43.18358 | 22.31064 | 361° | 15km/h | 20141m | 6.4m/s | -56.7°C | 0.8% | 0hPa | 0V | 00:00:00 | 00:00:00 | 00:00:00 | |
| LZ4TU-5 | 2026-08-30 18:19:23 | 43.18227 | 22.31217 | 137° | 9km/h | 19717m | 4.9m/s | -56.8°C | 1.1% | 0hPa | 0V | 00:00:00 | 00:00:00 | 00:00:00 | |
| LZ4TU-5 | 2026-08-30 18:19:18 | 43.18235 | 22.31210 | 166° | 11km/h | 19691m | 4.4m/s | -56.7°C | 1.1% | 0hPa | 0V | 00:00:00 | 00:00:00 | 00:00:00 | |
| LZ4TU-5 | 2026-08-30 18:18:03 | 43.18250 | 22.30867 | 70° | 18km/h | 19278m | 5.6m/s | -56.9°C | 1.3% | 0hPa | 0V | 00:00:00 | 00:00:00 | 00:00:00 | |
| LZ4TU-5 | 2026-08-30 18:17:58 | 43.18249 | 22.30837 | 116° | 16km/h | 19251m | 5.7m/s | -56.9°C | 0% | 0hPa | 0V | 00:00:00 | 00:00:00 | 00:00:00 | |
| LZ4TU-5 | 2026-08-30 18:16:44 | 43.18238 | 22.30461 | 134° | 7km/h | 18845m | 6.2m/s | -56.5°C | 1.6% | 0hPa | 0V | 00:00:00 | 00:00:00 | 00:00:00 | |
| LZ4TU-5 | 2026-08-30 18:16:39 | 43.18238 | 22.30449 | 172° | 7km/h | 18819m | 4.7m/s | -56.4°C | 1.6% | 0hPa | 0V | 00:00:00 | 00:00:00 | 00:00:00 | |
| LZ4TU-5 | 2026-08-30 18:15:25 | 43.18275 | 22.30104 | 65° | 20km/h | 18409m | 5.8m/s | -59.2°C | 1.8% | 0hPa | 0V | 00:00:00 | 00:00:00 | 00:00:00 | |
| LZ4TU-5 | 2026-08-30 18:15:21 | 43.18264 | 22.30082 | 24° | 22km/h | 18388m | 5.6m/s | -59.0°C | 1.8% | 0hPa | 0V | 00:00:00 | 00:00:00 | 00:00:00 | |
| LZ4TU-5 | 2026-08-30 18:14:06 | 43.18170 | 22.29750 | 123° | 9km/h | 17981m | 5.7m/s | -58.4°C | 2.3% | 0hPa | 0V | 00:00:00 | 00:00:00 | 00:00:00 | |
| LZ4TU-5 | 2026-08-30 18:14:01 | 43.18164 | 22.29720 | 92° | 24km/h | 17957m | 4.5m/s | -58.3°C | 2.4% | 0hPa | 0V | 00:00:00 | 00:00:00 | 00:00:00 | |
| LZ4TU-5 | 2026-08-30 18:12:46 | 43.18277 | 22.29653 | 141° | 18km/h | 17541m | 5.0m/s | -56.5°C | 3.1% | 0hPa | 0V | 00:00:00 | 00:00:00 | 00:00:00 | |
| LZ4TU-5 | 2026-08-30 18:12:41 | 43.18283 | 22.29620 | 97° | 22km/h | 17514m | 5.5m/s | -56.5°C | 3.1% | 0hPa | 0V | 00:00:00 | 00:00:00 | 00:00:00 | |
| LZ4TU-5 | 2026-08-30 18:11:25 | 43.18438 | 22.28732 | 78° | 42km/h | 17121m | 4.4m/s | -58.8°C | 3.4% | 0hPa | 0V | 00:00:00 | 00:00:00 | 00:00:00 | |
| LZ4TU-5 | 2026-08-30 18:11:21 | 43.18427 | 22.28671 | 74° | 42km/h | 17102m | 5.2m/s | -58.8°C | 0% | 0hPa | 0V | 00:00:00 | 00:00:00 | 00:00:00 | |
| LZ4TU-5 | 2026-08-30 18:10:06 | 43.18171 | 22.27656 | 78° | 31km/h | 16732m | 5.5m/s | -59.9°C | 4.0% | 0hPa | 0V | 00:00:00 | 00:00:00 | 00:00:00 | |
| LZ4TU-5 | 2026-08-30 18:10:01 | 43.18151 | 22.27604 | 56° | 33km/h | 16705m | 5.7m/s | -59.9°C | 4.0% | 0hPa | 0V | 00:00:00 | 00:00:00 | 00:00:00 | |
| LZ4TU-5 | 2026-08-30 18:08:46 | 43.18356 | 22.26753 | 117° | 29km/h | 16308m | 4.5m/s | -61.0°C | 4.9% | 0hPa | 0V | 00:00:00 | 00:00:00 | 00:00:00 | |
| LZ4TU-5 | 2026-08-30 18:08:41 | 43.18372 | 22.26712 | 104° | 24km/h | 16285m | 5.3m/s | -60.8°C | 4.9% | 0hPa | 0V | 00:00:00 | 00:00:00 | 00:00:00 | |
| LZ4TU-5 | 2026-08-30 18:07:29 | 43.18637 | 22.26451 | 158° | 27km/h | 15900m | 10.7m/s | -60.0°C | 5.9% | 0hPa | 0V | 00:00:00 | 00:00:00 | 00:00:00 | |
| LZ4TU-5 | 2026-08-30 18:07:24 | 43.18660 | 22.26406 | 129° | 22km/h | 15858m | 6.1m/s | -60.2°C | 6.0% | 0hPa | 0V | 00:00:00 | 00:00:00 | 00:00:00 | |
| LZ4TU-5 | 2026-08-30 18:06:03 | 43.18876 | 22.25559 | 99° | 37km/h | 15427m | 5.0m/s | -59.7°C | 7.4% | 0hPa | 0V | 00:00:00 | 00:00:00 | 00:00:00 | |
| LZ4TU-5 | 2026-08-30 18:05:58 | 43.18883 | 22.25497 | 94° | 33km/h | 15402m | 5.3m/s | -59.6°C | 7.5% | 0hPa | 0V | 00:00:00 | 00:00:00 | 00:00:00 | |
| LZ4TU-5 | 2026-08-30 18:04:42 | 43.18928 | 22.24584 | 98° | 40km/h | 15067m | 4.4m/s | -60.1°C | 8.8% | 0hPa | 0V | 00:00:00 | 00:00:00 | 00:00:00 | |
| LZ4TU-5 | 2026-08-30 18:04:38 | 43.18932 | 22.24534 | 93° | 27km/h | 15049m | 5.1m/s | -60.1°C | 8.8% | 0hPa | 0V | 00:00:00 | 00:00:00 | 00:00:00 | |
| LZ4TU-5 | 2026-08-30 18:03:23 | 43.19036 | 22.23715 | 92° | 26km/h | 14689m | 4.7m/s | -59.2°C | 11.2% | 0hPa | 0V | 00:00:00 | 00:00:00 | 00:00:00 | |
| LZ4TU-5 | 2026-08-30 18:03:18 | 43.19036 | 22.23671 | 104° | 20km/h | 14665m | 5.9m/s | -59.0°C | 11.4% | 0hPa | 0V | 00:00:00 | 00:00:00 | 00:00:00 | |
| LZ4TU-5 | 2026-08-30 18:02:05 | 43.19347 | 22.23081 | 140° | 46km/h | 14279m | 4.4m/s | -57.2°C | 14.5% | 0hPa | 0V | 00:00:00 | 00:00:00 | 00:00:00 | |
| LZ4TU-5 | 2026-08-30 18:02:01 | 43.19385 | 22.23028 | 133° | 55km/h | 14259m | 5.6m/s | -57.3°C | 14.7% | 0hPa | 0V | 00:00:00 | 00:00:00 | 00:00:00 | |
| LZ4TU-5 | 2026-08-30 18:00:42 | 43.20064 | 22.21838 | 120° | 60km/h | 13887m | 5.2m/s | -57.0°C | 20.1% | 0hPa | 0V | 00:00:00 | 00:00:00 | 00:00:00 | |
| LZ4TU-5 | 2026-08-30 18:00:37 | 43.20101 | 22.21738 | 115° | 66km/h | 13866m | 4.5m/s | -57.5°C | 0% | 0hPa | 0V | 00:00:00 | 00:00:00 | 00:00:00 | |
| LZ4TU-5 | 2026-08-30 17:59:13 | 43.20548 | 22.20192 | 109° | 62km/h | 13526m | 4.0m/s | -58.6°C | 29.6% | 0hPa | 0V | 00:00:00 | 00:00:00 | 00:00:00 | |
| LZ4TU-5 | 2026-08-30 17:57:53 | 43.21158 | 22.18656 | 113° | 60km/h | 13182m | 5.3m/s | -60.2°C | 35.6% | 0hPa | 0V | 00:00:00 | 00:00:00 | 00:00:00 | |
| LZ4TU-5 | 2026-08-30 17:57:49 | 43.21188 | 22.18575 | 118° | 69km/h | 13164m | 3.8m/s | -60.1°C | 35.8% | 0hPa | 0V | 00:00:00 | 00:00:00 | 00:00:00 | |
| LZ4TU-5 | 2026-08-30 17:56:23 | 43.21771 | 22.17017 | 121° | 53km/h | 12756m | 4.6m/s | -59.4°C | 40.5% | 0hPa | 0V | 00:00:00 | 00:00:00 | 00:00:00 | |
| LZ4TU-5 | 2026-08-30 17:56:18 | 43.21801 | 22.16927 | 120° | 60km/h | 12733m | 4.8m/s | -59.3°C | 0% | 0hPa | 0V | 00:00:00 | 00:00:00 | 00:00:00 | |
| LZ4TU-5 | 2026-08-30 17:54:51 | 43.22320 | 22.15734 | 126° | 46km/h | 12293m | 4.5m/s | -56.6°C | 39.4% | 0hPa | 0V | 00:00:00 | 00:00:00 | 00:00:00 | |
| LZ4TU-5 | 2026-08-30 17:54:47 | 43.22341 | 22.15690 | 117° | 33km/h | 12276m | 4.1m/s | -56.5°C | 39.1% | 0hPa | 0V | 00:00:00 | 00:00:00 | 00:00:00 | |
| LZ4TU-5 | 2026-08-30 17:53:27 | 43.22745 | 22.14815 | 110° | 53km/h | 11867m | 5.0m/s | -53.5°C | 38.8% | 0hPa | 0V | 00:00:00 | 00:00:00 | 00:00:00 | |
| LZ4TU-5 | 2026-08-30 17:53:23 | 43.22767 | 22.14758 | 129° | 37km/h | 11847m | 5.3m/s | -53.4°C | 38.8% | 0hPa | 0V | 00:00:00 | 00:00:00 | 00:00:00 | |
| LZ4TU-5 | 2026-08-30 17:52:00 | 43.23266 | 22.13812 | 115° | 44km/h | 11400m | 4.5m/s | -49.9°C | 32.8% | 0hPa | 0V | 00:00:00 | 00:00:00 | 00:00:00 | |
| LZ4TU-5 | 2026-08-30 17:51:55 | 43.23289 | 22.13751 | 144° | 38km/h | 11379m | 7.4m/s | -49.7°C | 32.8% | 0hPa | 0V | 00:00:00 | 00:00:00 | 00:00:00 | |
| LZ4TU-5 | 2026-08-30 17:50:36 | 43.23819 | 22.12744 | 129° | 46km/h | 10987m | 5.8m/s | -46.9°C | 31.9% | 0hPa | 0V | 00:00:00 | 00:00:00 | 00:00:00 | |
| LZ4TU-5 | 2026-08-30 17:50:31 | 43.23858 | 22.12674 | 128° | 53km/h | 10965m | 4.6m/s | -46.6°C | 31.0% | 0hPa | 0V | 00:00:00 | 00:00:00 | 00:00:00 | |
| LZ4TU-5 | 2026-08-30 17:49:09 | 43.24343 | 22.11502 | 118° | 55km/h | 10583m | 4.2m/s | -43.8°C | 28.9% | 0hPa | 0V | 00:00:00 | 00:00:00 | 00:00:00 | |
| LZ4TU-5 | 2026-08-30 17:47:52 | 43.24755 | 22.10332 | 126° | 38km/h | 10247m | 5.3m/s | -41.3°C | 25.2% | 0hPa | 0V | 00:00:00 | 00:00:00 | 00:00:00 | |
| LZ4TU-5 | 2026-08-30 17:47:47 | 43.24786 | 22.10263 | 111° | 53km/h | 10221m | 4.1m/s | -41.2°C | 25.2% | 0hPa | 0V | 00:00:00 | 00:00:00 | 00:00:00 | |
| LZ4TU-5 | 2026-08-30 17:46:28 | 43.25262 | 22.08948 | 110° | 47km/h | 9837m | 4.9m/s | -38.4°C | 34.3% | 0hPa | 0V | 00:00:00 | 00:00:00 | 00:00:00 | |
| LZ4TU-5 | 2026-08-30 17:46:23 | 43.25291 | 22.08872 | 124° | 55km/h | 9814m | 4.0m/s | -38.4°C | 34.4% | 0hPa | 0V | 00:00:00 | 00:00:00 | 00:00:00 | |
| LZ4TU-5 | 2026-08-30 17:45:03 | 43.25740 | 22.07475 | 113° | 40km/h | 9412m | 5.1m/s | -34.9°C | 33.8% | 0hPa | 0V | 00:00:00 | 00:00:00 | 00:00:00 | |
| LZ4TU-5 | 2026-08-30 17:44:58 | 43.25769 | 22.07399 | 108° | 58km/h | 9388m | 3.7m/s | -34.7°C | 34.0% | 0hPa | 0V | 00:00:00 | 00:00:00 | 00:00:00 | |
| LZ4TU-5 | 2026-08-30 17:43:41 | 43.26075 | 22.06082 | 109° | 49km/h | 9020m | 5.0m/s | -31.9°C | 30.4% | 0hPa | 0V | 00:00:00 | 00:00:00 | 00:00:00 | |
| LZ4TU-5 | 2026-08-30 17:43:36 | 43.26094 | 22.05992 | 107° | 53km/h | 8998m | 5.0m/s | -31.9°C | 0% | 0hPa | 0V | 00:00:00 | 00:00:00 | 00:00:00 | |
| LZ4TU-5 | 2026-08-30 17:42:15 | 43.26413 | 22.04562 | 91° | 57km/h | 8597m | 5.2m/s | -28.3°C | 26.7% | 0hPa | 0V | 00:00:00 | 00:00:00 | 00:00:00 | |
| LZ4TU-5 | 2026-08-30 17:42:11 | 43.26425 | 22.04486 | 113° | 58km/h | 8577m | 4.3m/s | -28.2°C | 26.3% | 0hPa | 0V | 00:00:00 | 00:00:00 | 00:00:00 | |
| LZ4TU-5 | 2026-08-30 17:40:50 | 43.26760 | 22.03137 | 88° | 51km/h | 8247m | 6.2m/s | -26.3°C | 39.3% | 0hPa | 0V | 00:00:00 | 00:00:00 | 00:00:00 | |
| LZ4TU-5 | 2026-08-30 17:40:46 | 43.26764 | 22.03067 | 111° | 47km/h | 8227m | 4.8m/s | -26.3°C | 46.3% | 0hPa | 0V | 00:00:00 | 00:00:00 | 00:00:00 | |
| LZ4TU-5 | 2026-08-30 17:39:19 | 43.27045 | 22.01786 | 106° | 38km/h | 7845m | 5.5m/s | -23.1°C | 51.1% | 0hPa | 0V | 00:00:00 | 00:00:00 | 00:00:00 | |
| LZ4TU-5 | 2026-08-30 17:39:15 | 43.27061 | 22.01725 | 111° | 55km/h | 7826m | 2.7m/s | -22.9°C | 50.7% | 0hPa | 0V | 00:00:00 | 00:00:00 | 00:00:00 | |
| LZ4TU-5 | 2026-08-30 17:38:02 | 43.27339 | 22.00519 | 112° | 49km/h | 7481m | 5.4m/s | -20.1°C | 44.5% | 0hPa | 0V | 00:00:00 | 00:00:00 | 00:00:00 | |
| LZ4TU-5 | 2026-08-30 17:37:57 | 43.27351 | 22.00453 | 120° | 38km/h | 7460m | 4.9m/s | -20.0°C | 35.7% | 0hPa | 0V | 00:00:00 | 00:00:00 | 00:00:00 | |
| LZ4TU-5 | 2026-08-30 17:36:45 | 43.27627 | 21.99412 | 114° | 35km/h | 7092m | 7.0m/s | -17.8°C | 27.6% | 0hPa | 0V | 00:00:00 | 00:00:00 | 00:00:00 | |
| LZ4TU-5 | 2026-08-30 17:36:40 | 43.27637 | 21.99368 | 100° | 44km/h | 7061m | 6.3m/s | -17.8°C | 32.1% | 0hPa | 0V | 00:00:00 | 00:00:00 | 00:00:00 | |
| LZ4TU-5 | 2026-08-30 17:35:27 | 43.27890 | 21.98503 | 96° | 42km/h | 6664m | 4.7m/s | -15.3°C | 59.1% | 0hPa | 0V | 00:00:00 | 00:00:00 | 00:00:00 | |
| LZ4TU-5 | 2026-08-30 17:35:23 | 43.27901 | 21.98432 | 109° | 49km/h | 6645m | 5.3m/s | -15.1°C | 58.5% | 0hPa | 0V | 00:00:00 | 00:00:00 | 00:00:00 | |
| LZ4TU-5 | 2026-08-30 17:34:06 | 43.28212 | 21.97709 | 150° | 33km/h | 6220m | 5.1m/s | -11.6°C | 49.2% | 0hPa | 0V | 00:00:00 | 00:00:00 | 00:00:00 | |
| LZ4TU-5 | 2026-08-30 17:34:01 | 43.28245 | 21.97656 | 103° | 27km/h | 6195m | 5.4m/s | -11.4°C | 49.4% | 0hPa | 0V | 00:00:00 | 00:00:00 | 00:00:00 | |
| LZ4TU-5 | 2026-08-30 17:32:38 | 43.28702 | 21.97063 | 127° | 37km/h | 5769m | 6.1m/s | -8.2°C | 41.9% | 0hPa | 0V | 00:00:00 | 00:00:00 | 00:00:00 | |
| LZ4TU-5 | 2026-08-30 17:32:33 | 43.28727 | 21.97029 | 147° | 42km/h | 5742m | 4.2m/s | -8.1°C | 47.7% | 0hPa | 0V | 00:00:00 | 00:00:00 | 00:00:00 | |
| LZ4TU-5 | 2026-08-30 17:31:26 | 43.29042 | 21.96355 | 148° | 38km/h | 5405m | 6.7m/s | -5.7°C | 44.1% | 0hPa | 0V | 00:00:00 | 00:00:00 | 00:00:00 | |
| LZ4TU-5 | 2026-08-30 17:31:21 | 43.29084 | 21.96325 | 139° | 26km/h | 5385m | 4.3m/s | -5.5°C | 44.4% | 0hPa | 0V | 00:00:00 | 00:00:00 | 00:00:00 | |
| LZ4TU-5 | 2026-08-30 17:30:15 | 43.29318 | 21.95756 | 117° | 35km/h | 5044m | 3.4m/s | -3.0°C | 43.4% | 0hPa | 0V | 00:00:00 | 00:00:00 | 00:00:00 | |
| LZ4TU-5 | 2026-08-30 17:30:09 | 43.29323 | 21.95731 | 0° | 0km/h | 5023m | 3.1m/s | -2.8°C | 42.8% | 0hPa | 0V | 00:00:00 | 00:00:00 | 00:00:00 | |
| LZ4TU-5 | 2026-08-30 17:29:02 | 43.29498 | 21.95186 | 98° | 27km/h | 4681m | 6.1m/s | 0.1°C | 29.2% | 0hPa | 0V | 00:00:00 | 00:00:00 | 00:00:00 | |
| LZ4TU-5 | 2026-08-30 17:28:58 | 43.29497 | 21.95161 | 82° | 13km/h | 4664m | 4.8m/s | 0.3°C | 0% | 0hPa | 0V | 00:00:00 | 00:00:00 | 00:00:00 | |
| LZ4TU-5 | 2026-08-30 17:27:50 | 43.29873 | 21.94311 | 94° | 37km/h | 4322m | 5.5m/s | -0.4°C | 24.5% | 0hPa | 0V | 00:00:00 | 00:00:00 | 00:00:00 | |
| LZ4TU-5 | 2026-08-30 17:27:46 | 43.29882 | 21.94245 | 119° | 64km/h | 4300m | 5.3m/s | -0.2°C | 24.3% | 0hPa | 0V | 00:00:00 | 00:00:00 | 00:00:00 | |
| LZ4TU-5 | 2026-08-30 17:26:38 | 43.30298 | 21.93148 | 116° | 78km/h | 3894m | 7.1m/s | 2.5°C | 58.3% | 0hPa | 0V | 00:00:00 | 00:00:00 | 00:00:00 | |
| LZ4TU-5 | 2026-08-30 17:26:34 | 43.30338 | 21.93082 | 130° | 44km/h | 3871m | 5.1m/s | 2.6°C | 0% | 0hPa | 0V | 00:00:00 | 00:00:00 | 00:00:00 | |
| LZ4TU-5 | 2026-08-30 17:25:27 | 43.30836 | 21.91811 | 137° | 58km/h | 3472m | 5.8m/s | 6.0°C | 32.9% | 0hPa | 0V | 00:00:00 | 00:00:00 | 00:00:00 | |
| LZ4TU-5 | 2026-08-30 17:25:23 | 43.30860 | 21.91769 | 106° | 44km/h | 3450m | 5.1m/s | 6.2°C | 30.3% | 0hPa | 0V | 00:00:00 | 00:00:00 | 00:00:00 | |
| LZ4TU-5 | 2026-08-30 17:25:17 | 43.30895 | 21.91640 | 124° | 55km/h | 3417m | 6.3m/s | 6.5°C | 21.8% | 0hPa | 0V | 00:00:00 | 00:00:00 | 00:00:00 | |
| LZ4TU-5 | 2026-08-30 17:25:13 | 43.30918 | 21.91599 | 113° | 38km/h | 3395m | 3.1m/s | 6.7°C | 21.6% | 0hPa | 0V | 00:00:00 | 00:00:00 | 00:00:00 |